Time;durP1;ratioP1;P1;durP2;ratioP2;P2;SDS_P1;SDS_P2;PMS_P1;PMS_P2;Temp;Humidity;BMP_temperature;BMP_pressure;BME280_temperature;BME280_humidity;BME280_pressure;Samples;Min_cycle;Max_cycle;Signal;HPM_P1;HPM_P2
2023/02/28 00:00:44;;;;;;;16.65;9.30;;;;;;;-1.20;100.00;92729.34;6212300;23;20020;-77
2023/02/28 00:03:09;;;;;;;13.73;8.15;;;;;;;-1.20;100.00;92729.34;6212148;23;20455;-77
2023/02/28 00:05:35;;;;;;;18.27;8.82;;;;;;;-1.17;100.00;92730.69;6212531;23;20028;-77
2023/02/28 00:08:01;;;;;;;21.13;8.52;;;;;;;-1.18;100.00;92737.63;6212010;23;20011;-77
2023/02/28 00:10:30;;;;;;;14.85;8.85;;;;;;;-1.24;100.00;92730.75;6162494;23;20020;-78
2023/02/28 00:13:00;;;;;;;20.42;9.50;;;;;;;-1.20;100.00;92737.03;6214078;23;20016;-77
2023/02/28 00:15:25;;;;;;;15.63;9.32;;;;;;;-1.21;100.00;92730.34;6212986;23;20035;-78
2023/02/28 00:17:51;;;;;;;19.95;10.27;;;;;;;-1.18;100.00;92735.06;6211857;23;20004;-78
2023/02/28 00:20:17;;;;;;;27.67;12.68;;;;;;;-1.14;100.00;92733.66;6186972;23;20042;-78
2023/02/28 00:22:45;;;;;;;21.10;9.48;;;;;;;-1.15;100.00;92739.78;6212567;23;20000;-78
2023/02/28 00:25:14;;;;;;;19.38;10.05;;;;;;;-1.17;100.00;92736.66;6212438;23;20087;-77
2023/02/28 00:27:41;;;;;;;16.92;9.25;;;;;;;-1.13;100.00;92740.34;6213907;23;20054;-78
2023/02/28 00:30:10;;;;;;;15.23;8.82;;;;;;;-1.15;100.00;92739.78;6213878;23;20016;-77
2023/02/28 00:32:36;;;;;;;16.00;9.25;;;;;;;-1.17;100.00;92734.09;6214065;23;19996;-77
2023/02/28 00:35:03;;;;;;;17.77;10.00;;;;;;;-1.19;100.00;92735.25;6212050;23;20016;-78
2023/02/28 00:37:28;;;;;;;14.75;8.52;;;;;;;-1.19;100.00;92737.81;6186945;23;20003;-78
2023/02/28 00:39:54;;;;;;;18.42;9.77;;;;;;;-1.20;100.00;92737.03;6211987;23;20016;-77
2023/02/28 00:42:22;;;;;;;17.45;9.48;;;;;;;-1.25;100.00;92731.75;6187672;23;20011;-78
2023/02/28 00:44:47;;;;;;;13.90;8.38;;;;;;;-1.30;100.00;92723.88;6187545;23;20090;-77
2023/02/28 00:47:13;;;;;;;19.15;10.30;;;;;;;-1.21;100.00;92735.47;6212549;23;20000;-78
2023/02/28 00:49:38;;;;;;;16.83;8.98;;;;;;;-1.21;100.00;92742.41;6212355;23;20024;-77
2023/02/28 00:52:04;;;;;;;22.33;11.18;;;;;;;-1.25;100.00;92736.88;6213725;23;20017;-77
2023/02/28 00:54:30;;;;;;;19.55;11.00;;;;;;;-1.23;100.00;92734.91;6187370;23;20484;-77
2023/02/28 00:56:55;;;;;;;17.52;9.00;;;;;;;-1.21;100.00;92735.47;6162404;23;20023;-78
2023/02/28 00:59:21;;;;;;;16.45;9.05;;;;;;;-1.23;100.00;92734.91;6187241;23;20092;-77
2023/02/28 01:01:47;;;;;;;14.55;8.30;;;;;;;-1.22;100.00;92731.31;6187338;23;20000;-77
2023/02/28 01:04:14;;;;;;;20.38;9.75;;;;;;;-1.24;100.00;92738.44;6187191;23;20021;-77
2023/02/28 01:06:40;;;;;;;16.38;8.13;;;;;;;-1.32;100.00;92741.28;6187380;23;20239;-77
2023/02/28 01:09:10;;;;;;;15.98;9.00;;;;;;;-1.28;100.00;92737.31;6162584;23;20395;-77
2023/02/28 01:11:35;;;;;;;20.23;9.68;;;;;;;-1.27;100.00;92734.50;6187590;23;20020;-78
2023/02/28 01:14:02;;;;;;;17.48;8.85;;;;;;;-1.25;100.00;92731.75;6188714;23;20500;-78
2023/02/28 01:16:28;;;;;;;15.50;9.07;;;;;;;-1.27;100.00;92736.31;6188909;23;20028;-78
2023/02/28 01:18:53;;;;;;;20.55;9.65;;;;;;;-1.30;100.00;92732.38;6188634;23;20004;-78
2023/02/28 01:21:21;;;;;;;18.63;9.52;;;;;;;-1.29;100.00;92730.59;6187248;23;20074;-78
2023/02/28 01:23:47;;;;;;;17.40;10.20;;;;;;;-1.28;100.00;92727.03;6214337;23;19996;-77
2023/02/28 01:26:20;;;;;;;20.02;11.60;;;;;;;-1.30;100.00;92722.09;6187963;23;20020;-78
2023/02/28 01:28:46;;;;;;;23.40;10.48;;;;;;;-1.36;100.00;92729.84;6214626;23;20467;-77
2023/02/28 01:31:12;;;;;;;16.73;10.23;;;;;;;-1.39;100.00;92731.06;6215336;23;20003;-77
2023/02/28 01:33:39;;;;;;;17.48;9.75;;;;;;;-1.41;100.00;92717.63;6189407;23;20013;-77
2023/02/28 01:36:11;;;;;;;19.23;11.52;;;;;;;-1.44;100.00;92723.19;6189009;23;20008;-77
2023/02/28 01:38:38;;;;;;;23.00;11.55;;;;;;;-1.38;100.00;92711.28;6188946;23;20352;-77
2023/02/28 01:41:04;;;;;;;19.20;9.93;;;;;;;-1.34;100.00;92715.81;6188997;23;20027;-77
2023/02/28 01:43:42;;;;;;;28.95;9.35;;;;;;;-1.27;100.00;92724.25;6188700;23;20391;-78
2023/02/28 01:46:08;;;;;;;84.85;11.60;;;;;;;-1.32;100.00;92720.75;6189351;23;20387;-77
2023/02/28 01:48:43;;;;;;;298.85;12.68;;;;;;;-1.33;100.00;92719.16;6215293;23;20076;-77
2023/02/28 01:51:17;;;;;;;34.67;10.60;;;;;;;-1.41;100.00;92716.84;6214920;23;20396;-77
2023/02/28 01:53:51;;;;;;;26.85;11.55;;;;;;;-1.50;100.00;92724.78;6211034;23;20349;-78
2023/02/28 01:56:23;;;;;;;641.50;18.55;;;;;;;-1.62;100.00;92721.31;6213658;23;20053;-78
2023/02/28 01:58:52;;;;;;;493.60;16.75;;;;;;;-1.63;100.00;92713.81;6214138;23;20027;-78
2023/02/28 02:01:23;;;;;;;102.93;12.65;;;;;;;-1.63;100.00;92721.50;6189263;23;20038;-77
2023/02/28 02:03:55;;;;;;;40.00;10.68;;;;;;;-1.62;100.00;92717.94;6215766;23;20441;-78
2023/02/28 02:06:28;;;;;;;31.15;10.65;;;;;;;-1.61;100.00;92722.09;6214457;23;20416;-78
2023/02/28 02:08:54;;;;;;;35.53;12.43;;;;;;;-1.61;100.00;92725.44;6214504;23;20036;-78
2023/02/28 02:11:22;;;;;;;20.95;11.52;;;;;;;-1.59;100.00;92730.38;6215626;23;20310;-77
2023/02/28 02:14:07;;;;;;;19.20;10.05;;;;;;;-1.54;100.00;92723.63;6189269;23;20013;-77
2023/02/28 02:16:50;;;;;;;18.67;10.60;;;;;;;-1.59;100.00;92720.88;6214061;23;20082;-77
2023/02/28 02:19:39;;;;;;;23.63;11.82;;;;;;;-1.60;100.00;92719.31;6213987;23;20047;-77
2023/02/28 02:22:30;;;;;;;22.98;10.05;;;;;;;-1.59;100.00;92720.09;6214125;23;20020;-77
2023/02/28 02:25:17;;;;;;;22.40;10.85;;;;;;;-1.58;100.00;92709.63;6215408;23;20012;-78
2023/02/28 02:28:07;;;;;;;37.03;15.15;;;;;;;-1.61;100.00;92716.97;6215247;23;20400;-77
2023/02/28 02:30:39;;;;;;;29.00;13.73;;;;;;;-1.63;100.00;92717.16;6214033;23;20012;-77
2023/02/28 02:33:26;;;;;;;42.88;17.90;;;;;;;-1.63;100.00;92714.59;6213662;23;20087;-78
2023/02/28 02:36:17;;;;;;;48.58;20.20;;;;;;;-1.67;100.00;92713.41;6215417;23;20035;-77
2023/02/28 02:38:53;;;;;;;46.33;18.15;;;;;;;-1.66;100.00;92712.44;6216689;23;20031;-77
2023/02/28 02:41:21;;;;;;;37.33;15.82;;;;;;;-1.63;100.00;92718.94;6214509;23;20452;-77
2023/02/28 02:43:53;;;;;;;36.90;15.05;;;;;;;-1.59;100.00;92720.88;6216363;23;19991;-77
2023/02/28 02:46:37;;;;;;;34.97;14.15;;;;;;;-1.56;100.00;92720.47;6215051;23;20023;-77
2023/02/28 02:49:09;;;;;;;26.73;12.18;;;;;;;-1.59;100.00;92715.75;6215277;23;20071;-77
2023/02/28 02:51:36;;;;;;;43.08;15.50;;;;;;;-1.61;100.00;92722.88;6215804;23;20306;-77
2023/02/28 02:54:15;;;;;;;47.05;17.40;;;;;;;-1.61;100.00;92722.09;6188704;23;20020;-77
2023/02/28 02:56:45;;;;;;;58.63;20.65;;;;;;;-1.60;100.00;92719.31;6188378;23;20008;-77
2023/02/28 02:59:15;;;;;;;24.33;12.10;;;;;;;-1.58;100.00;92717.31;6188895;23;20019;-77
2023/02/28 03:01:42;;;;;;;28.42;12.07;;;;;;;-1.56;100.00;92719.69;6188439;23;20059;-77
2023/02/28 03:04:12;;;;;;;31.27;13.57;;;;;;;-1.58;100.00;92717.31;6214828;23;20003;-78
2023/02/28 03:06:38;;;;;;;16.27;8.60;;;;;;;-1.31;100.00;92710.25;6215318;23;20005;-77
2023/02/28 03:09:04;;;;;;;103.43;9.90;;;;;;;-1.31;100.00;92714.59;6162829;23;20008;-78
2023/02/28 03:11:31;;;;;;;291.92;15.50;;;;;;;-1.50;100.00;92701.69;6214618;23;20020;-78
2023/02/28 03:14:15;;;;;;;416.70;16.50;;;;;;;-1.57;100.00;92711.19;6188235;23;20000;-77
2023/02/28 03:17:06;;;;;;;133.57;12.68;;;;;;;-1.63;100.00;92709.44;6187748;23;20017;-78
2023/02/28 03:19:54;;;;;;;20.50;10.90;;;;;;;-1.70;100.00;92712.06;6188029;23;20479;-78
2023/02/28 03:23:10;;;;;;;22.50;11.57;;;;;;;-1.67;100.00;92713.41;6214510;23;20012;-77
2023/02/28 03:25:41;;;;;;;19.92;10.75;;;;;;;-1.61;100.00;92717.75;6097383;23;20065;-77
2023/02/28 03:28:31;;;;;;;21.20;12.17;;;;;;;-1.69;100.00;92715.41;6198944;23;20027;-78
2023/02/28 03:31:09;;;;;;;40.78;10.82;;;;;;;-1.63;100.00;92724.06;6187812;23;20631;-77
2023/02/28 03:33:42;;;;;;;317.80;14.68;;;;;;;-1.58;100.00;92717.31;6162563;23;20116;-77
2023/02/28 03:36:16;;;;;;;117.55;11.98;;;;;;;-1.59;100.00;92720.88;6214115;23;20040;-77
2023/02/28 03:38:52;;;;;;;74.07;11.52;;;;;;;-1.36;100.00;92715.22;6162873;23;20017;-77
2023/02/28 03:41:25;;;;;;;20.80;11.00;;;;;;;-1.44;100.00;92717.25;6215088;23;20076;-77
2023/02/28 03:44:00;;;;;;;19.17;10.25;;;;;;;-1.52;100.00;92720.84;6213329;23;20198;-77
2023/02/28 03:46:33;;;;;;;20.60;10.82;;;;;;;-1.55;100.00;92727.19;6214600;23;20031;-77
2023/02/28 03:49:08;;;;;;;20.15;11.55;;;;;;;-1.58;100.00;92721.66;6188170;23;20016;-77
2023/02/28 03:51:35;;;;;;;22.25;12.00;;;;;;;-1.57;100.00;92728.41;6214649;23;20013;-77
2023/02/28 03:54:09;;;;;;;19.17;11.05;;;;;;;-1.55;100.00;92716.91;6214957;23;20039;-77
2023/02/28 03:56:43;;;;;;;19.90;11.63;;;;;;;-1.54;100.00;92728.75;6188567;23;20066;-78
2023/02/28 03:59:25;;;;;;;19.90;10.70;;;;;;;-1.49;100.00;92726.38;6215954;23;20032;-77
2023/02/28 04:01:51;;;;;;;17.98;10.75;;;;;;;-1.49;100.00;92733.28;6189551;23;20343;-77
2023/02/28 04:04:18;;;;;;;19.58;9.95;;;;;;;-1.52;100.00;92734.47;6214350;23;20028;-77
2023/02/28 04:06:44;;;;;;;19.73;11.05;;;;;;;-1.56;100.00;92730.75;6187561;23;20321;-77
2023/02/28 04:09:12;;;;;;;18.98;11.07;;;;;;;-1.56;100.00;92735.88;6187448;23;20033;-77
2023/02/28 04:11:41;;;;;;;20.88;11.23;;;;;;;-1.54;100.00;92733.88;6187485;23;20353;-77
2023/02/28 04:14:08;;;;;;;19.80;11.23;;;;;;;-1.55;100.00;92732.31;6214281;23;19996;-78
2023/02/28 04:16:36;;;;;;;21.40;10.73;;;;;;;-1.51;100.00;92732.69;6187767;23;20433;-77
2023/02/28 04:19:04;;;;;;;19.15;10.95;;;;;;;-1.54;100.00;92733.09;6187660;23;20033;-78
2023/02/28 04:21:35;;;;;;;20.00;11.02;;;;;;;-1.56;100.00;92725.59;6187934;23;20018;-77
2023/02/28 04:24:02;;;;;;;22.27;11.00;;;;;;;-1.56;100.00;92743.56;6188314;23;20079;-77
2023/02/28 04:26:32;;;;;;;21.88;11.93;;;;;;;-1.57;100.00;92734.31;6188440;23;20015;-77
2023/02/28 04:28:58;;;;;;;81.03;9.43;;;;;;;-1.41;100.00;92738.16;6214881;23;20004;-77
2023/02/28 04:31:24;;;;;;;503.58;18.58;;;;;;;-1.41;100.00;92742.53;6113194;23;20322;-77
2023/02/28 04:33:49;;;;;;;20.38;11.70;;;;;;;-1.57;100.00;92736.88;6213706;23;20015;-78
2023/02/28 04:36:17;;;;;;;26.65;12.90;;;;;;;-1.61;100.00;92735.72;6187144;23;20015;-77
2023/02/28 04:38:44;;;;;;;26.58;12.18;;;;;;;-1.61;100.00;92742.63;6163511;23;20047;-77
2023/02/28 04:41:09;;;;;;;25.48;13.57;;;;;;;-1.64;100.00;92736.13;6213447;23;20005;-77
2023/02/28 04:43:35;;;;;;;21.42;12.35;;;;;;;-1.66;100.00;92740.69;6213523;23;20059;-77
2023/02/28 04:46:03;;;;;;;21.23;11.88;;;;;;;-1.66;100.00;92745.03;6162199;23;20011;-77
2023/02/28 04:48:31;;;;;;;18.95;11.43;;;;;;;-1.65;100.00;92747.38;6186686;23;20016;-78
2023/02/28 04:51:01;;;;;;;23.35;13.10;;;;;;;-1.65;100.00;92747.38;6213483;23;20075;-78
2023/02/28 04:53:28;;;;;;;24.23;12.27;;;;;;;-1.64;100.00;92748.16;6213519;23;20411;-77
2023/02/28 04:55:55;;;;;;;22.02;11.88;;;;;;;-1.61;100.00;92742.63;6187124;23;20016;-77
2023/02/28 04:58:23;;;;;;;21.77;12.38;;;;;;;-1.63;100.00;92745.41;6212518;23;20023;-77
2023/02/28 05:00:52;;;;;;;20.98;10.75;;;;;;;-1.65;100.00;92747.38;6214019;23;20000;-77
2023/02/28 05:03:20;;;;;;;23.00;12.15;;;;;;;-1.64;100.00;92751.53;6189198;23;20448;-77
2023/02/28 05:05:46;;;;;;;16.45;8.93;;;;;;;-1.31;100.00;92753.13;6215390;23;20332;-77
2023/02/28 05:08:12;;;;;;;22.08;11.20;;;;;;;-1.32;100.00;92746.41;6213740;23;20032;-77
2023/02/28 05:10:37;;;;;;;17.80;9.57;;;;;;;-1.34;100.00;92756.91;6188508;23;20001;-77
2023/02/28 05:13:03;;;;;;;22.05;11.55;;;;;;;-1.37;100.00;92749.63;6215588;23;20012;-77
2023/02/28 05:15:28;;;;;;;20.85;11.05;;;;;;;-1.50;100.00;92755.59;6189495;23;20063;-77
2023/02/28 05:17:54;;;;;;;18.33;10.20;;;;;;;-1.54;100.00;92751.84;6215391;23;20087;-77
2023/02/28 05:20:20;;;;;;;21.85;11.25;;;;;;;-1.62;100.00;92759.81;6164023;23;20420;-77
2023/02/28 05:22:47;;;;;;;113.18;9.75;;;;;;;-1.55;100.00;92763.13;6215506;23;20013;-76
2023/02/28 05:25:16;;;;;;;331.52;14.82;;;;;;;-1.59;100.00;92761.97;6215245;23;20020;-77
2023/02/28 05:27:42;;;;;;;20.30;11.40;;;;;;;-1.47;100.00;92768.00;6189161;23;20016;-77
2023/02/28 05:30:10;;;;;;;22.10;12.07;;;;;;;-1.58;100.00;92766.09;6214390;23;20011;-76
2023/02/28 05:32:42;;;;;;;20.40;10.52;;;;;;;-1.51;100.00;92764.31;6215112;23;20063;-77
2023/02/28 05:35:10;;;;;;;21.15;11.27;;;;;;;-1.51;100.00;92756.59;6187899;23;20045;-76
2023/02/28 05:37:36;;;;;;;22.65;12.13;;;;;;;-1.55;100.00;92758.00;6188267;23;20026;-77
2023/02/28 05:40:05;;;;;;;22.20;12.68;;;;;;;-1.41;100.00;92752.81;6165227;23;20322;-77
2023/02/28 05:42:32;;;;;;;27.58;13.43;;;;;;;-1.40;100.00;92755.16;6213988;23;20005;-77
2023/02/28 05:44:57;;;;;;;24.77;12.38;;;;;;;-1.40;100.00;92752.56;6187505;23;20012;-76
2023/02/28 05:47:23;;;;;;;23.55;12.75;;;;;;;-1.47;100.00;92760.31;6214041;23;20001;-76
2023/02/28 05:49:48;;;;;;;23.92;13.23;;;;;;;-1.52;100.00;92747.31;6213486;23;20021;-75
2023/02/28 05:52:15;;;;;;;24.52;12.85;;;;;;;-1.48;100.00;92763.88;6190363;23;20360;-76
2023/02/28 05:54:41;;;;;;;25.80;13.82;;;;;;;-1.49;100.00;92756.38;6213130;23;20074;-75
2023/02/28 05:57:06;;;;;;;26.05;12.98;;;;;;;-1.46;100.00;92756.00;6213844;23;20285;-77
2023/02/28 05:59:32;;;;;;;30.95;13.85;;;;;;;-1.49;100.00;92757.19;6213157;23;20071;-76
2023/02/28 06:01:58;;;;;;;24.55;12.73;;;;;;;-1.51;100.00;92753.22;6212624;23;20107;-77
2023/02/28 06:04:25;;;;;;;26.50;13.15;;;;;;;-1.55;100.00;92752.88;6213194;23;20017;-76
2023/02/28 06:06:54;;;;;;;28.02;13.95;;;;;;;-1.49;100.00;92744.34;6188396;23;20000;-77
2023/02/28 06:09:20;;;;;;;26.83;14.23;;;;;;;-1.46;100.00;92750.84;6212834;23;20047;-77
2023/02/28 06:11:46;;;;;;;25.77;13.25;;;;;;;-1.49;100.00;92757.19;6212829;23;20048;-76
2023/02/28 06:14:16;;;;;;;26.33;13.75;;;;;;;-1.43;100.00;92752.22;6213158;23;20013;-77
2023/02/28 06:16:43;;;;;;;29.77;14.40;;;;;;;-1.33;100.00;92757.69;6213770;23;20298;-77
2023/02/28 06:19:09;;;;;;;25.80;12.73;;;;;;;-1.36;100.00;92756.31;6215583;23;20005;-77
2023/02/28 06:21:35;;;;;;;26.92;13.00;;;;;;;-1.20;100.00;92761.94;6215017;23;20070;-76
2023/02/28 06:24:02;;;;;;;21.38;11.95;;;;;;;-1.19;100.00;92754.06;6217249;23;20000;-78
2023/02/28 06:26:27;;;;;;;24.25;12.50;;;;;;;-1.29;100.00;92761.41;6216534;23;20015;-76
2023/02/28 06:28:54;;;;;;;23.85;12.55;;;;;;;-1.29;100.00;92767.31;6188724;23;20005;-77
2023/02/28 06:31:20;;;;;;;26.77;12.68;;;;;;;-1.32;100.00;92772.88;6213050;23;20017;-76
2023/02/28 06:33:47;;;;;;;27.80;13.95;;;;;;;-1.34;100.00;92774.09;6216093;23;20004;-76
2023/02/28 06:36:14;;;;;;;24.00;12.70;;;;;;;-1.28;100.00;92783.56;6212790;23;20015;-77
2023/02/28 06:38:42;;;;;;;26.58;13.60;;;;;;;-1.31;100.00;92783.94;6213182;23;20001;-76
2023/02/28 06:41:08;;;;;;;21.50;11.98;;;;;;;-1.36;100.00;92783.78;6214057;23;20016;-76
2023/02/28 06:43:37;;;;;;;25.30;13.05;;;;;;;-1.29;100.00;92790.44;6214124;23;20004;-76
2023/02/28 06:46:06;;;;;;;21.52;12.40;;;;;;;-1.36;100.00;92789.69;6212749;23;20014;-76
2023/02/28 06:48:32;;;;;;;24.60;12.52;;;;;;;-1.40;100.00;92795.44;6214144;23;20000;-76
2023/02/28 06:51:09;;;;;;;22.55;12.73;;;;;;;-1.40;100.00;92785.19;6214126;23;20016;-76
2023/02/28 06:53:35;;;;;;;30.77;11.82;;;;;;;-1.35;100.00;92787.91;6212206;23;20444;-77
2023/02/28 06:56:09;;;;;;;21.58;10.98;;;;;;;-1.31;100.00;92789.84;6213909;23;20097;-77
2023/02/28 06:58:37;;;;;;;21.35;11.02;;;;;;;-1.28;100.00;92792.03;6187460;23;20004;-76
2023/02/28 07:01:03;;;;;;;20.48;10.70;;;;;;;-1.22;100.00;92792.19;6213985;23;20054;-76
2023/02/28 07:03:29;;;;;;;22.38;12.38;;;;;;;-1.26;100.00;92794.41;6212433;23;20013;-76
2023/02/28 07:05:56;;;;;;;23.02;11.65;;;;;;;-1.23;100.00;92790.63;6214128;23;20028;-76
2023/02/28 07:08:23;;;;;;;20.52;11.23;;;;;;;-1.19;100.00;92800.28;6214014;23;20023;-76
2023/02/28 07:10:52;;;;;;;24.75;11.80;;;;;;;-1.14;100.00;92802.25;6212227;23;20047;-77
2023/02/28 07:13:18;;;;;;;21.13;11.55;;;;;;;-1.07;100.00;92806.34;6212459;23;20019;-76
2023/02/28 07:15:44;;;;;;;24.38;11.52;;;;;;;-1.00;100.00;92801.16;6187444;23;20452;-76
2023/02/28 07:18:09;;;;;;;22.88;11.68;;;;;;;-1.06;100.00;92807.94;6187345;23;20027;-76
2023/02/28 07:20:35;;;;;;;18.77;9.77;;;;;;;-0.98;100.00;92806.09;6213688;23;20013;-76
2023/02/28 07:23:00;;;;;;;20.73;11.23;;;;;;;-1.02;100.00;92812.63;6213851;23;20019;-76
2023/02/28 07:25:28;;;;;;;20.45;11.10;;;;;;;-1.11;100.00;92818.00;6212186;23;19997;-76
2023/02/28 07:27:55;;;;;;;23.95;11.68;;;;;;;-1.22;100.00;92813.53;6213885;23;20012;-76
2023/02/28 07:30:20;;;;;;;18.95;10.95;;;;;;;-1.22;100.00;92813.53;6186586;23;20000;-76
2023/02/28 07:32:46;;;;;;;22.52;12.23;;;;;;;-1.18;100.00;92819.84;6212354;23;20012;-76
2023/02/28 07:35:15;;;;;;;25.48;11.70;;;;;;;-1.15;100.00;92818.63;6213792;23;19997;-76
2023/02/28 07:37:41;;;;;;;21.25;11.88;;;;;;;-1.14;100.00;92823.56;6213340;23;20008;-76
2023/02/28 07:40:12;;;;;;;26.45;12.05;;;;;;;-1.09;100.00;92817.81;6213558;23;20004;-77
2023/02/28 07:42:39;;;;;;;22.02;11.88;;;;;;;-1.08;100.00;92817.63;6212112;23;20020;-77
2023/02/28 07:45:05;;;;;;;23.33;12.30;;;;;;;-1.05;100.00;92818.97;6211638;23;20015;-77
2023/02/28 07:47:31;;;;;;;23.58;12.48;;;;;;;-1.05;100.00;92818.97;6211910;23;20020;-76
2023/02/28 07:49:57;;;;;;;26.33;12.40;;;;;;;-0.98;100.00;92818.94;6213436;23;20007;-76
2023/02/28 07:52:23;;;;;;;21.65;11.88;;;;;;;-0.94;100.00;92817.53;6211943;23;20112;-76
2023/02/28 07:54:50;;;;;;;25.65;12.73;;;;;;;-0.91;100.00;92822.25;6213610;23;20449;-76
2023/02/28 07:57:15;;;;;;;23.40;12.05;;;;;;;-0.86;100.00;92823.22;6211916;23;20019;-77
2023/02/28 07:59:41;;;;;;;24.27;12.98;;;;;;;-0.80;100.00;92815.66;6213419;23;20004;-76
2023/02/28 08:02:10;;;;;;;25.40;12.02;;;;;;;-0.75;100.00;92814.03;6213355;23;20326;-76
2023/02/28 08:04:36;;;;;;;23.10;11.75;;;;;;;-0.70;100.00;92818.53;6211791;23;20004;-76
2023/02/28 08:07:01;;;;;;;25.63;12.48;;;;;;;-0.70;100.00;92821.94;6214041;23;20009;-76
2023/02/28 08:09:27;;;;;;;25.67;12.82;;;;;;;-0.59;100.00;92827.38;6211359;23;20008;-77
2023/02/28 08:11:52;;;;;;;6.70;4.05;;;;;;;-0.41;100.00;92832.56;6211689;23;20023;-77
2023/02/28 08:14:18;;;;;;;119.97;18.15;;;;;;;-0.77;100.00;92831.44;6213051;23;20012;-76
2023/02/28 08:16:44;;;;;;;27.08;14.85;;;;;;;-0.76;100.00;92827.91;6186923;23;20330;-76
2023/02/28 08:19:09;;;;;;;41.38;13.25;;;;;;;-0.60;100.00;92831.75;6186608;23;20016;-76
2023/02/28 08:21:35;;;;;;;25.10;13.57;;;;;;;-0.73;100.00;92837.75;6211464;23;20532;-76
2023/02/28 08:24:00;;;;;;;27.83;14.82;;;;;;;-0.55;100.00;92831.88;6211731;23;20004;-76
2023/02/28 08:26:26;;;;;;;39.97;15.70;;;;;;;-0.63;100.00;92827.81;6213736;23;20337;-77
2023/02/28 08:28:52;;;;;;;45.55;16.02;;;;;;;-0.81;100.00;92832.06;6211635;23;20000;-76
2023/02/28 08:31:18;;;;;;;30.67;15.43;;;;;;;-0.73;100.00;92837.75;6186893;23;20008;-76
2023/02/28 08:33:44;;;;;;;29.95;15.80;;;;;;;-0.61;100.00;92832.72;6213847;23;20004;-77
2023/02/28 08:36:11;;;;;;;29.05;13.80;;;;;;;-0.59;100.00;92822.22;6212561;23;20020;-76
2023/02/28 08:38:37;;;;;;;48.58;18.52;;;;;;;-0.49;100.00;92828.50;6186433;23;20008;-76
2023/02/28 08:41:07;;;;;;;38.00;17.65;;;;;;;-0.70;100.00;92827.06;6211489;23;20012;-77
2023/02/28 08:43:33;;;;;;;34.95;17.40;;;;;;;-0.71;100.00;92834.97;6213172;23;20020;-76
2023/02/28 08:45:59;;;;;;;68.35;10.90;;;;;;;-0.59;100.00;92829.94;6213023;23;19992;-76
2023/02/28 08:48:27;;;;;;;32.20;10.23;;;;;;;-0.78;100.00;92837.59;6211671;23;20016;-76
2023/02/28 08:51:02;;;;;;;109.15;17.30;;;;;;;-0.73;100.00;92837.75;6211580;23;20000;-76
2023/02/28 08:53:27;;;;;;;14.38;9.10;;;;;;;-0.73;100.00;92837.75;6212468;23;20013;-76
2023/02/28 08:56:08;;;;;;;14.18;7.80;;;;;;;-0.74;100.00;92837.97;6161399;23;20456;-77
2023/02/28 08:58:35;;;;;;;48.60;15.43;;;;;;;-0.72;100.00;92847.06;6186658;23;20013;-76
2023/02/28 09:01:06;;;;;;;23.65;10.73;;;;;;;-0.83;100.00;92842.59;6213001;23;20032;-76
2023/02/28 09:03:32;;;;;;;48.20;10.88;;;;;;;-0.88;100.00;92838.06;6186713;23;20019;-76
2023/02/28 09:06:00;;;;;;;15.70;9.27;;;;;;;-0.95;100.00;92849.38;6213434;23;20000;-76
2023/02/28 09:08:30;;;;;;;223.35;18.25;;;;;;;-1.08;100.00;92851.03;6186611;23;20464;-76
2023/02/28 09:10:57;;;;;;;40.78;18.50;;;;;;;-1.14;100.00;92846.69;6212853;23;20008;-77
2023/02/28 09:13:24;;;;;;;92.30;19.33;;;;;;;-1.11;100.00;92848.84;6186535;23;20005;-77
2023/02/28 09:15:50;;;;;;;37.25;18.00;;;;;;;-1.07;100.00;92855.16;6186740;23;20036;-76
2023/02/28 09:18:16;;;;;;;44.50;19.77;;;;;;;-1.00;100.00;92854.34;6186578;23;20341;-76
2023/02/28 09:20:43;;;;;;;33.67;17.00;;;;;;;-0.96;100.00;92863.22;6186324;23;20040;-76
2023/02/28 09:23:11;;;;;;;33.28;15.10;;;;;;;-0.76;100.00;92860.53;6212838;23;20441;-76
2023/02/28 09:25:37;;;;;;;36.10;18.27;;;;;;;-0.67;100.00;92862.63;6213131;23;20055;-76
2023/02/28 09:28:03;;;;;;;25.58;12.82;;;;;;;-0.62;100.00;92856.88;6211549;23;20361;-76
2023/02/28 09:30:30;;;;;;;32.15;16.35;;;;;;;-0.52;100.00;92869.25;6213482;23;20389;-77
2023/02/28 09:32:56;;;;;;;32.17;16.58;;;;;;;-0.56;100.00;92870.66;6212891;23;20004;-76
2023/02/28 09:35:23;;;;;;;31.23;17.00;;;;;;;-0.60;100.00;92872.09;6137047;23;20482;-76
2023/02/28 09:37:51;;;;;;;32.03;16.17;;;;;;;-0.26;100.00;92861.34;6213094;23;19997;-76
2023/02/28 09:40:18;;;;;;;57.47;26.75;;;;;;;-0.32;100.00;92869.91;6186793;23;20334;-76
2023/02/28 09:42:47;;;;;;;33.17;17.15;;;;;;;-0.25;100.00;92875.81;6212955;23;20407;-76
2023/02/28 09:45:19;;;;;;;33.00;16.75;;;;;;;-0.16;100.00;92872.94;6186427;23;20012;-76
2023/02/28 09:47:48;;;;;;;27.58;15.15;;;;;;;-0.15;100.00;92872.75;6186563;23;20326;-76
2023/02/28 09:50:25;;;;;;;28.50;15.88;;;;;;;-0.16;100.00;92873.72;6214517;23;19993;-76
2023/02/28 09:52:53;;;;;;;28.23;14.90;;;;;;;-0.07;100.00;92871.69;6199773;23;20391;-76
2023/02/28 09:55:29;;;;;;;30.58;16.50;;;;;;;-0.03;100.00;92875.41;6212555;23;20058;-76
2023/02/28 09:57:59;;;;;;;27.83;15.43;;;;;;;0.07;100.00;92873.16;6214614;23;20013;-77
2023/02/28 10:00:39;;;;;;;28.05;15.13;;;;;;;0.15;100.00;92875.44;6214831;23;20192;-76
2023/02/28 10:03:40;;;;;;;28.67;14.30;;;;;;;0.33;100.00;92873.88;6212797;23;20019;-77
2023/02/28 10:06:12;;;;;;;26.98;13.68;;;;;;;0.42;100.00;92867.47;6213040;23;20447;-76
2023/02/28 10:08:45;;;;;;;27.05;14.13;;;;;;;0.52;100.00;92875.47;6213057;23;20012;-76
2023/02/28 10:11:15;;;;;;;21.02;10.48;;;;;;;0.88;100.00;92871.31;6214277;23;20013;-76
2023/02/28 10:13:55;;;;;;;25.15;13.73;;;;;;;0.85;100.00;92873.53;6214513;23;20020;-77
2023/02/28 10:16:28;;;;;;;27.92;14.82;;;;;;;0.74;100.00;92880.97;6214600;23;20004;-77
2023/02/28 10:19:17;;;;;;;27.33;14.07;;;;;;;0.70;100.00;92868.72;6214550;23;20012;-77
2023/02/28 10:21:49;;;;;;;29.75;13.65;;;;;;;0.72;100.00;92877.84;6213934;23;20023;-77
2023/02/28 10:24:40;;;;;;;29.13;14.77;;;;;;;0.60;100.00;92872.59;6215417;23;20080;-77
2023/02/28 10:27:29;;;;;;;27.08;14.05;;;;;;;0.74;100.00;92877.59;6214179;23;20265;-77
2023/02/28 10:29:57;;;;;;;25.73;14.98;;;;;;;0.70;100.00;92872.13;6215883;23;20498;-77
2023/02/28 10:32:28;;;;;;;25.70;14.07;;;;;;;0.68;100.00;92873.34;6212917;23;20004;-77
2023/02/28 10:35:06;;;;;;;26.95;12.98;;;;;;;0.99;100.00;92869.78;6212885;23;20083;-77
2023/02/28 10:37:37;;;;;;;25.70;13.20;;;;;;;0.92;100.00;92885.31;6212540;23;20023;-77
2023/02/28 10:40:05;;;;;;;22.20;12.85;;;;;;;0.85;100.00;92884.63;6212669;23;20016;-77
2023/02/28 10:42:31;;;;;;;36.72;17.60;;;;;;;0.89;100.00;92890.91;6214882;23;20000;-77
2023/02/28 10:45:17;;;;;;;28.90;15.55;;;;;;;0.76;100.00;92881.53;6214449;23;20021;-77
2023/02/28 10:48:02;;;;;;;26.05;14.00;;;;;;;0.90;100.00;92879.63;6214776;23;20016;-77
2023/02/28 10:50:44;;;;;;;22.20;12.30;;;;;;;0.85;100.00;92874.31;6214862;23;20039;-77
2023/02/28 10:53:21;;;;;;;24.98;13.38;;;;;;;1.03;100.00;92887.16;6213339;23;20023;-77
2023/02/28 10:56:09;;;;;;;17.38;10.23;;;;;;;0.99;100.00;92886.03;6215756;23;20048;-77
2023/02/28 10:59:02;;;;;;;31.23;16.08;;;;;;;0.90;100.00;92877.03;6214929;23;20035;-77
2023/02/28 11:01:45;;;;;;;31.25;14.68;;;;;;;0.82;100.00;92882.47;6212498;23;20023;-77
2023/02/28 11:04:36;;;;;;;30.83;16.00;;;;;;;0.89;100.00;92887.56;6214362;23;20097;-77
2023/02/28 11:07:04;;;;;;;29.65;15.27;;;;;;;0.77;100.00;92874.63;6214213;23;20008;-77
2023/02/28 11:09:35;;;;;;;29.75;15.98;;;;;;;1.01;100.00;92878.88;6213449;23;20000;-77
2023/02/28 11:12:04;;;;;;;35.42;15.23;;;;;;;0.80;100.00;92866.44;6214124;23;20016;-77
2023/02/28 11:14:35;;;;;;;24.98;12.73;;;;;;;0.96;100.00;92860.69;6212482;23;20078;-77
2023/02/28 11:17:15;;;;;;;24.38;13.27;;;;;;;1.03;100.00;92870.91;6212273;23;20008;-77
2023/02/28 11:19:47;;;;;;;29.20;14.32;;;;;;;1.08;100.00;92867.69;6214053;23;20009;-77
2023/02/28 11:22:19;;;;;;;25.42;14.07;;;;;;;1.18;100.00;92865.38;6212271;23;20428;-77
2023/02/28 11:24:47;;;;;;;;;;;;;;;1.37;100.00;92866.88;6214591;23;20024;-77